createdAt,value
2023-01-29T00:01:15.144Z,13.43
2023-01-29T00:03:42.882Z,13.90
2023-01-29T00:06:11.863Z,13.97
2023-01-29T00:08:41.031Z,13.23
2023-01-29T00:11:09.993Z,13.70
2023-01-29T00:13:37.747Z,13.77
2023-01-29T00:16:06.203Z,14.80
2023-01-29T00:18:33.800Z,13.82
2023-01-29T00:21:01.385Z,14.40
2023-01-29T00:23:29.089Z,14.03
2023-01-29T00:26:00.559Z,13.53
2023-01-29T00:28:28.150Z,13.57
2023-01-29T00:30:55.870Z,13.17
2023-01-29T00:33:23.570Z,13.20
2023-01-29T00:35:51.185Z,13.97
2023-01-29T00:38:18.821Z,13.23
2023-01-29T00:41:04.154Z,14.50
2023-01-29T00:43:50.799Z,14.23
2023-01-29T00:46:18.411Z,14.00
2023-01-29T00:48:46.071Z,14.93
2023-01-29T00:51:13.691Z,15.57
2023-01-29T00:53:41.313Z,15.60
2023-01-29T00:56:08.995Z,16.20
2023-01-29T00:58:37.975Z,15.57
2023-01-29T01:01:05.925Z,14.77
2023-01-29T01:03:35.146Z,15.52
2023-01-29T01:06:07.170Z,14.93
2023-01-29T01:09:01.087Z,15.30
2023-01-29T01:11:28.729Z,14.60
2023-01-29T01:14:02.007Z,15.20
2023-01-29T01:16:29.743Z,14.60
2023-01-29T01:18:57.413Z,14.40
2023-01-29T01:21:25.045Z,13.73
2023-01-29T01:23:53.633Z,14.70
2023-01-29T01:26:21.276Z,14.50
2023-01-29T01:28:49.060Z,13.73
2023-01-29T01:31:18.621Z,14.23
2023-01-29T01:33:46.335Z,15.23
2023-01-29T01:36:13.922Z,13.93
2023-01-29T01:38:45.261Z,14.00
2023-01-29T01:41:13.763Z,13.97
2023-01-29T01:43:49.748Z,13.95
2023-01-29T01:46:19.049Z,14.33
2023-01-29T01:48:50.903Z,13.27
2023-01-29T01:51:19.522Z,13.80
2023-01-29T01:53:55.207Z,14.27
2023-01-29T01:56:27.840Z,13.70
2023-01-29T01:58:57.703Z,13.07
2023-01-29T02:01:28.851Z,13.37
2023-01-29T02:04:20.190Z,13.30
2023-01-29T02:07:06.007Z,13.20
2023-01-29T02:09:39.457Z,12.27
2023-01-29T02:12:09.839Z,13.87
2023-01-29T02:14:40.150Z,13.83
2023-01-29T02:17:11.194Z,13.90
2023-01-29T02:19:47.916Z,13.67
2023-01-29T02:22:30.894Z,14.20
2023-01-29T02:25:22.733Z,14.63
2023-01-29T02:28:21.531Z,14.60
2023-01-29T02:30:57.593Z,14.57
2023-01-29T02:33:37.089Z,14.83
2023-01-29T02:36:15.142Z,14.70
2023-01-29T02:38:48.831Z,14.48
2023-01-29T02:41:20.536Z,14.87
2023-01-29T02:43:56.775Z,15.33
2023-01-29T02:46:31.920Z,15.63
2023-01-29T02:49:05.343Z,14.63
2023-01-29T02:51:38.656Z,14.13
2023-01-29T02:54:11.653Z,14.80
2023-01-29T02:56:47.569Z,15.17
2023-01-29T02:59:20.098Z,16.40
2023-01-29T03:01:51.114Z,16.03
2023-01-29T03:04:23.931Z,15.13
2023-01-29T03:06:58.089Z,16.33
2023-01-29T03:09:33.996Z,16.47
2023-01-29T03:12:19.887Z,16.07
2023-01-29T03:15:09.813Z,16.80
2023-01-29T03:17:42.182Z,16.37
2023-01-29T03:20:16.640Z,17.43
2023-01-29T03:22:50.401Z,18.30
2023-01-29T03:25:39.310Z,18.20
2023-01-29T03:28:26.212Z,18.60
2023-01-29T03:31:15.898Z,18.27
2023-01-29T03:33:49.340Z,19.93
2023-01-29T03:36:22.390Z,20.00
2023-01-29T03:38:50.107Z,19.97
2023-01-29T03:41:26.226Z,20.27
2023-01-29T03:44:05.565Z,20.30
2023-01-29T03:46:42.659Z,19.10
2023-01-29T03:49:18.484Z,21.83
2023-01-29T03:51:56.697Z,20.73
2023-01-29T03:54:30.955Z,20.48
2023-01-29T03:57:05.123Z,20.97
2023-01-29T03:59:41.390Z,20.70
2023-01-29T04:02:14.563Z,21.23
2023-01-29T04:04:46.176Z,20.87
2023-01-29T04:07:18.505Z,21.73
2023-01-29T04:09:51.531Z,21.50
2023-01-29T04:12:25.355Z,22.80
2023-01-29T04:14:55.305Z,21.70
2023-01-29T04:17:32.873Z,21.73
2023-01-29T04:20:01.535Z,21.17
2023-01-29T04:22:33.140Z,20.83
2023-01-29T04:25:02.668Z,22.83
2023-01-29T04:27:41.887Z,21.50
2023-01-29T04:30:30.152Z,23.50
2023-01-29T04:33:15.516Z,21.75
2023-01-29T04:35:54.233Z,21.40
2023-01-29T04:41:04.671Z,22.53
2023-01-29T04:43:45.556Z,21.10
2023-01-29T04:46:17.370Z,21.70
2023-01-29T04:49:01.205Z,21.10
2023-01-29T04:51:40.727Z,22.20
2023-01-29T04:54:13.723Z,23.87
2023-01-29T04:56:50.103Z,21.33
2023-01-29T04:59:23.750Z,22.43
2023-01-29T05:01:51.742Z,22.00
2023-01-29T05:04:22.465Z,22.27
2023-01-29T05:06:51.140Z,21.80
2023-01-29T05:09:19.309Z,21.67
2023-01-29T05:11:48.550Z,21.55
2023-01-29T05:14:20.678Z,22.93
2023-01-29T05:16:52.704Z,21.60
2023-01-29T05:19:21.624Z,22.17
2023-01-29T05:24:19.921Z,19.73
2023-01-29T05:27:07.366Z,21.27
2023-01-29T05:29:35.455Z,20.33
2023-01-29T05:32:03.708Z,20.60
2023-01-29T05:34:32.731Z,21.88
2023-01-29T05:37:00.407Z,20.43
2023-01-29T05:39:28.046Z,20.30
2023-01-29T05:41:55.664Z,20.27
2023-01-29T05:44:23.287Z,22.97
2023-01-29T05:46:51.198Z,20.67
2023-01-29T05:49:20.486Z,20.80
2023-01-29T05:51:49.502Z,21.27
2023-01-29T05:54:17.157Z,21.87
2023-01-29T05:56:44.809Z,21.57
2023-01-29T05:59:12.483Z,21.53
2023-01-29T06:01:40.088Z,21.43
2023-01-29T06:04:07.874Z,21.00
2023-01-29T06:06:35.507Z,22.30
2023-01-29T06:09:04.759Z,21.93
2023-01-29T06:11:32.427Z,20.73
2023-01-29T06:14:00.040Z,23.00
2023-01-29T06:16:27.750Z,21.77
2023-01-29T06:18:55.422Z,21.27
2023-01-29T06:21:22.997Z,20.63
2023-01-29T06:23:52.915Z,22.43
2023-01-29T06:26:21.943Z,21.53
2023-01-29T06:31:37.855Z,23.10
2023-01-29T06:34:06.302Z,21.50
2023-01-29T06:36:33.935Z,22.03
2023-01-29T06:39:01.647Z,24.13
2023-01-29T06:41:30.696Z,23.07
2023-01-29T06:43:58.357Z,22.07
2023-01-29T06:46:26.121Z,24.50
2023-01-29T06:48:53.787Z,23.00
2023-01-29T06:51:22.950Z,22.50
2023-01-29T06:53:50.616Z,23.03
2023-01-29T06:56:18.251Z,22.90
2023-01-29T06:58:47.194Z,23.97
2023-01-29T07:04:02.856Z,21.40
2023-01-29T07:06:31.134Z,24.45
2023-01-29T07:08:58.778Z,21.40
2023-01-29T07:11:26.537Z,24.03
2023-01-29T07:13:55.545Z,22.10
2023-01-29T07:16:23.482Z,22.20
2023-01-29T07:18:51.159Z,21.88
2023-01-29T07:21:18.846Z,22.87
2023-01-29T07:23:46.483Z,24.67
2023-01-29T07:26:14.148Z,20.27
2023-01-29T07:28:42.123Z,20.97
2023-01-29T07:31:14.526Z,21.98
2023-01-29T07:33:44.206Z,20.67
2023-01-29T07:36:12.795Z,22.53
2023-01-29T07:38:40.470Z,21.98
2023-01-29T07:41:08.529Z,20.67
2023-01-29T07:43:36.138Z,21.33
2023-01-29T07:46:05.186Z,22.37
2023-01-29T07:48:34.236Z,22.67
2023-01-29T07:51:02.126Z,22.13
2023-01-29T07:53:29.851Z,22.37
2023-01-29T07:55:57.869Z,22.03
2023-01-29T07:58:25.603Z,23.67
2023-01-29T08:00:53.192Z,22.50
2023-01-29T08:03:21.493Z,22.87
2023-01-29T08:05:50.587Z,20.40
2023-01-29T08:08:19.272Z,22.80
2023-01-29T08:10:46.945Z,22.08
2023-01-29T08:13:14.621Z,22.80
2023-01-29T08:15:43.831Z,20.37
2023-01-29T08:18:11.493Z,20.30
2023-01-29T08:20:39.371Z,21.83
2023-01-29T08:23:13.557Z,21.60
2023-01-29T08:25:41.293Z,20.97
2023-01-29T08:28:09.746Z,21.53
2023-01-29T08:30:37.438Z,20.70
2023-01-29T08:33:05.438Z,23.63
2023-01-29T08:35:33.115Z,23.48
2023-01-29T08:38:03.212Z,21.97
2023-01-29T08:40:33.802Z,23.13
2023-01-29T08:43:02.737Z,21.40
2023-01-29T08:45:31.224Z,22.83
2023-01-29T08:47:58.823Z,20.77
2023-01-29T08:50:26.583Z,21.03
2023-01-29T08:52:58.856Z,21.13
2023-01-29T08:55:26.852Z,19.60
2023-01-29T08:57:57.328Z,19.60
2023-01-29T09:00:25.283Z,20.23
2023-01-29T09:02:53.078Z,19.50
2023-01-29T09:05:20.687Z,22.83
2023-01-29T09:07:48.360Z,19.30
2023-01-29T09:10:17.179Z,21.17
2023-01-29T09:12:44.734Z,19.27
2023-01-29T09:15:14.047Z,19.27
2023-01-29T09:17:43.033Z,19.30
2023-01-29T09:20:12.049Z,19.10
2023-01-29T09:22:39.663Z,22.73
2023-01-29T09:25:08.636Z,22.70
2023-01-29T09:27:36.286Z,20.33
2023-01-29T09:30:04.579Z,20.33
2023-01-29T09:32:53.688Z,20.33
2023-01-29T09:35:22.483Z,19.67
2023-01-29T09:37:50.148Z,19.63
2023-01-29T09:40:25.646Z,20.13
2023-01-29T09:42:59.028Z,20.60
2023-01-29T09:45:29.316Z,21.20
2023-01-29T09:48:01.425Z,19.33
2023-01-29T09:50:33.445Z,20.03
2023-01-29T09:53:06.147Z,19.60
2023-01-29T09:55:38.533Z,18.80
2023-01-29T09:58:13.009Z,19.50
2023-01-29T10:00:58.205Z,21.17
2023-01-29T10:03:45.026Z,20.70
2023-01-29T10:06:38.424Z,20.47
2023-01-29T10:09:38.759Z,20.50
2023-01-29T10:12:24.373Z,18.83
2023-01-29T10:15:01.320Z,19.30
2023-01-29T10:17:49.585Z,21.43
2023-01-29T10:20:35.164Z,19.43
2023-01-29T10:23:17.229Z,20.73
2023-01-29T10:25:47.842Z,20.67
2023-01-29T10:28:19.775Z,22.60
2023-01-29T10:30:51.108Z,20.43
2023-01-29T10:33:26.278Z,20.70
2023-01-29T10:35:59.492Z,21.67
2023-01-29T10:38:38.560Z,21.83
2023-01-29T10:41:23.576Z,22.17
2023-01-29T10:44:06.131Z,21.10
2023-01-29T10:46:48.752Z,21.37
2023-01-29T10:49:29.021Z,20.67
2023-01-29T10:52:11.238Z,21.57
2023-01-29T10:54:52.451Z,23.13
2023-01-29T10:57:31.738Z,23.40
2023-01-29T11:00:12.748Z,22.93
2023-01-29T11:02:45.804Z,24.07
2023-01-29T11:05:21.642Z,23.83
2023-01-29T11:08:00.926Z,24.23
2023-01-29T11:10:29.568Z,23.40
2023-01-29T11:12:58.610Z,23.13
2023-01-29T11:15:30.688Z,23.07
2023-01-29T11:18:13.687Z,23.20
2023-01-29T11:20:42.525Z,26.03
2023-01-29T11:25:55.165Z,22.57
2023-01-29T11:28:40.915Z,27.20
2023-01-29T11:31:20.684Z,24.80
2023-01-29T11:33:49.565Z,24.50
2023-01-29T11:39:21.393Z,26.07
2023-01-29T11:41:51.456Z,30.63
2023-01-29T11:44:28.811Z,24.97
2023-01-29T11:47:11.486Z,25.47
2023-01-29T11:49:42.795Z,25.83
2023-01-29T11:52:12.396Z,25.10
2023-01-29T11:54:48.089Z,28.07
2023-01-29T11:57:27.556Z,25.90
2023-01-29T11:59:58.106Z,27.67
2023-01-29T12:02:31.617Z,29.73
2023-01-29T12:05:03.729Z,26.77
2023-01-29T12:07:32.561Z,27.90
2023-01-29T12:12:36.233Z,26.23
2023-01-29T12:15:07.045Z,26.30
2023-01-29T12:17:39.159Z,26.33
2023-01-29T12:20:15.266Z,26.10
2023-01-29T12:22:51.551Z,25.17
2023-01-29T12:25:24.298Z,26.80
2023-01-29T12:28:00.915Z,24.80
2023-01-29T12:30:32.788Z,25.93
2023-01-29T12:33:07.241Z,25.70
2023-01-29T12:35:39.321Z,24.50
2023-01-29T12:38:21.659Z,26.97
2023-01-29T12:40:55.210Z,28.70
2023-01-29T12:43:28.601Z,25.97
2023-01-29T12:45:58.083Z,28.93
2023-01-29T12:48:29.481Z,26.53
2023-01-29T12:51:04.120Z,27.03
2023-01-29T12:53:36.144Z,27.30
2023-01-29T12:56:11.722Z,26.73
2023-01-29T12:58:44.350Z,26.63
2023-01-29T13:01:17.295Z,27.77
2023-01-29T13:03:51.689Z,26.37
2023-01-29T13:06:23.996Z,27.03
2023-01-29T13:08:54.850Z,25.57
2023-01-29T13:11:29.149Z,26.43
2023-01-29T13:14:02.155Z,27.87
2023-01-29T13:16:34.087Z,25.57
2023-01-29T13:19:04.744Z,25.77
2023-01-29T13:21:38.867Z,27.07
2023-01-29T13:24:14.017Z,27.93
2023-01-29T13:26:46.501Z,27.97
2023-01-29T13:29:23.654Z,27.87
2023-01-29T13:31:53.319Z,26.17
2023-01-29T13:34:25.741Z,25.50
2023-01-29T13:36:56.810Z,26.93
2023-01-29T13:39:28.575Z,25.37
2023-01-29T13:41:59.379Z,29.70
2023-01-29T13:44:29.333Z,25.07
2023-01-29T13:46:59.844Z,25.50
2023-01-29T13:49:36.324Z,26.00
2023-01-29T13:52:22.839Z,26.77
2023-01-29T13:54:57.192Z,25.50
2023-01-29T13:57:47.296Z,27.00
2023-01-29T14:00:57.010Z,25.40
2023-01-29T14:04:04.827Z,27.63
2023-01-29T14:06:57.505Z,24.58
2023-01-29T14:09:56.980Z,23.73
2023-01-29T14:12:37.379Z,25.30
2023-01-29T14:15:22.188Z,25.53
2023-01-29T14:18:05.698Z,27.47
2023-01-29T14:20:45.685Z,24.93
2023-01-29T14:23:25.063Z,24.80
2023-01-29T14:25:52.873Z,25.77
2023-01-29T14:28:25.577Z,28.77
2023-01-29T14:30:53.682Z,27.33
2023-01-29T14:33:33.941Z,26.85
2023-01-29T14:36:06.393Z,27.20
2023-01-29T14:38:34.841Z,28.53
2023-01-29T14:41:19.814Z,24.88
2023-01-29T14:43:48.939Z,27.83
2023-01-29T14:46:45.823Z,24.97
2023-01-29T14:49:13.532Z,27.47
2023-01-29T14:51:45.550Z,25.20
2023-01-29T14:54:26.295Z,24.57
2023-01-29T14:56:59.637Z,25.00
2023-01-29T14:59:34.951Z,24.73
2023-01-29T15:02:11.944Z,24.37
2023-01-29T15:04:45.536Z,24.83
2023-01-29T15:07:24.223Z,23.83
2023-01-29T15:10:13.256Z,24.40
2023-01-29T15:12:49.575Z,23.50
2023-01-29T15:15:27.441Z,23.30
2023-01-29T15:18:00.784Z,21.52
2023-01-29T15:20:33.944Z,23.17
2023-01-29T15:23:03.211Z,21.63
2023-01-29T15:25:36.973Z,23.33
2023-01-29T15:28:08.571Z,24.90
2023-01-29T15:30:39.165Z,22.27
2023-01-29T15:33:11.444Z,22.30
2023-01-29T15:35:41.834Z,24.83
2023-01-29T15:38:17.291Z,23.83
2023-01-29T15:40:53.293Z,24.00
2023-01-29T15:43:23.402Z,26.47
2023-01-29T15:45:54.619Z,24.80
2023-01-29T15:48:29.234Z,21.27
2023-01-29T15:50:57.875Z,23.47
2023-01-29T15:53:30.978Z,22.40
2023-01-29T15:56:00.016Z,23.80
2023-01-29T15:58:34.712Z,21.83
2023-01-29T16:01:04.798Z,22.03
2023-01-29T16:03:34.983Z,23.20
2023-01-29T16:06:03.362Z,23.30
2023-01-29T16:08:31.404Z,23.88
2023-01-29T16:11:01.729Z,24.98
2023-01-29T16:13:31.779Z,24.33
2023-01-29T16:16:01.498Z,25.40
2023-01-29T16:18:35.982Z,25.80
2023-01-29T16:21:08.755Z,23.00
2023-01-29T16:38:37.057Z,27.10
2023-01-29T16:41:15.783Z,28.70
2023-01-29T16:46:20.449Z,29.07
2023-01-29T16:48:48.543Z,26.37
2023-01-29T16:51:23.315Z,27.10
2023-01-29T16:53:58.008Z,27.97
2023-01-29T16:56:28.432Z,25.23
2023-01-29T16:58:56.659Z,26.37
2023-01-29T17:01:27.635Z,27.17
2023-01-29T17:04:01.694Z,25.17
2023-01-29T17:06:32.279Z,28.60
2023-01-29T17:09:01.928Z,24.00
2023-01-29T17:11:35.736Z,23.30
2023-01-29T17:14:04.053Z,26.03
2023-01-29T17:16:37.479Z,24.73
2023-01-29T17:19:17.748Z,24.43
2023-01-29T17:21:45.867Z,24.57
2023-01-29T17:24:15.009Z,25.52
2023-01-29T17:26:43.277Z,25.00
2023-01-29T17:29:15.419Z,28.70
2023-01-29T17:31:43.269Z,24.83
2023-01-29T17:34:14.375Z,26.98
2023-01-29T17:36:42.162Z,24.53
2023-01-29T17:39:19.376Z,26.13
2023-01-29T17:41:52.059Z,25.37
2023-01-29T17:44:19.696Z,23.67
2023-01-29T17:46:47.924Z,23.60
2023-01-29T17:49:23.485Z,24.88
2023-01-29T17:51:54.341Z,27.00
2023-01-29T17:54:25.496Z,26.20
2023-01-29T17:56:54.270Z,25.57
2023-01-29T18:01:50.943Z,24.38
2023-01-29T18:04:19.162Z,24.92
2023-01-29T18:06:50.061Z,27.10
2023-01-29T18:09:20.370Z,27.47
2023-01-29T18:11:50.629Z,27.77
2023-01-29T18:14:18.604Z,27.07
2023-01-29T18:16:46.649Z,26.30
2023-01-29T18:19:17.503Z,24.73
2023-01-29T18:21:45.192Z,24.50
2023-01-29T18:24:12.881Z,29.53
2023-01-29T18:26:40.542Z,24.20
2023-01-29T18:29:10.114Z,33.03
2023-01-29T18:31:37.924Z,28.50
2023-01-29T18:34:05.582Z,26.57
2023-01-29T18:36:33.272Z,26.87
2023-01-29T18:39:00.984Z,26.23
2023-01-29T18:41:28.653Z,29.23
2023-01-29T18:43:56.459Z,29.67
2023-01-29T18:46:25.470Z,29.00
2023-01-29T18:48:53.160Z,30.37
2023-01-29T18:51:20.804Z,27.60
2023-01-29T18:53:51.079Z,26.90
2023-01-29T18:56:19.257Z,28.00
2023-01-29T18:58:52.296Z,27.05
2023-01-29T19:01:23.471Z,26.67
2023-01-29T19:03:56.052Z,29.40
2023-01-29T19:06:23.680Z,29.53
2023-01-29T19:08:51.497Z,28.70
2023-01-29T19:11:19.260Z,29.00
2023-01-29T19:13:48.019Z,26.60
2023-01-29T19:16:15.818Z,28.27
2023-01-29T19:18:52.608Z,26.07
2023-01-29T19:21:21.598Z,25.67
2023-01-29T19:23:49.189Z,26.37
2023-01-29T19:26:17.355Z,24.27
2023-01-29T19:28:45.073Z,24.77
2023-01-29T19:31:12.809Z,23.43
2023-01-29T19:33:40.610Z,25.40
2023-01-29T19:36:08.895Z,24.80
2023-01-29T19:38:38.820Z,26.83
2023-01-29T19:41:06.633Z,26.40
2023-01-29T19:43:34.475Z,28.23
2023-01-29T19:46:02.869Z,25.50
2023-01-29T19:48:30.627Z,29.77
2023-01-29T19:51:00.051Z,35.90
2023-01-29T19:53:31.553Z,27.37
2023-01-29T19:56:12.729Z,33.00
2023-01-29T19:58:40.436Z,30.00
2023-01-29T20:01:16.053Z,30.87
2023-01-29T20:03:46.478Z,26.77
2023-01-29T20:06:15.399Z,25.87
2023-01-29T20:08:45.996Z,26.70
2023-01-29T20:11:15.454Z,26.20
2023-01-29T20:13:43.452Z,26.43
2023-01-29T20:16:11.125Z,26.08
2023-01-29T20:18:38.788Z,27.27
2023-01-29T20:21:09.489Z,26.00
2023-01-29T20:23:38.939Z,29.07
2023-01-29T20:26:09.037Z,29.50
2023-01-29T20:28:38.397Z,27.27
2023-01-29T20:31:06.811Z,26.13
2023-01-29T20:33:34.692Z,28.08
2023-01-29T20:36:04.417Z,26.50
2023-01-29T20:38:34.531Z,26.53
2023-01-29T20:41:06.523Z,26.03
2023-01-29T20:43:34.687Z,27.30
2023-01-29T20:46:04.074Z,28.13
2023-01-29T20:48:32.334Z,29.37
2023-01-29T20:51:09.364Z,28.52
2023-01-29T20:53:37.829Z,27.27
2023-01-29T20:56:06.376Z,27.98
2023-01-29T20:58:34.513Z,30.35
2023-01-29T21:01:08.324Z,27.15
2023-01-29T21:03:43.908Z,29.77
2023-01-29T21:06:12.365Z,28.20
2023-01-29T21:08:40.915Z,28.38
2023-01-29T21:11:10.093Z,29.92
2023-01-29T21:13:38.238Z,27.63
2023-01-29T21:16:10.602Z,27.83
2023-01-29T21:18:38.523Z,29.70
2023-01-29T21:21:06.623Z,30.38
2023-01-29T21:23:34.275Z,32.15
2023-01-29T21:26:03.602Z,33.10
2023-01-29T21:28:31.467Z,29.27
2023-01-29T21:31:10.015Z,28.63
2023-01-29T21:33:38.050Z,28.77
2023-01-29T21:36:06.847Z,28.05
2023-01-29T21:38:34.488Z,28.70
2023-01-29T21:41:03.003Z,29.50
2023-01-29T21:43:29.673Z,29.25
2023-01-29T21:45:57.839Z,30.50
2023-01-29T21:48:27.293Z,28.92
2023-01-29T21:50:54.925Z,29.97
2023-01-29T21:53:22.708Z,34.37
2023-01-29T21:55:50.368Z,28.37
2023-01-29T21:58:19.837Z,30.60
2023-01-29T22:00:49.571Z,31.90
2023-01-29T22:03:17.591Z,30.83
2023-01-29T22:05:46.540Z,30.45
2023-01-29T22:08:14.872Z,31.60
2023-01-29T22:10:42.629Z,29.90
2023-01-29T22:13:10.300Z,32.90
2023-01-29T22:15:37.984Z,29.73
2023-01-29T22:18:06.086Z,30.63
2023-01-29T22:20:33.814Z,29.45
2023-01-29T22:23:05.211Z,32.47
2023-01-29T22:25:33.494Z,32.30
2023-01-29T22:28:01.113Z,33.08
2023-01-29T22:30:28.895Z,32.93
2023-01-29T22:32:56.554Z,31.60
2023-01-29T22:35:24.214Z,30.43
2023-01-29T22:37:51.941Z,33.93
2023-01-29T22:40:21.206Z,29.57
2023-01-29T22:42:48.905Z,34.57
2023-01-29T22:45:16.814Z,29.87
2023-01-29T22:47:44.533Z,33.08
2023-01-29T22:50:13.293Z,29.90
2023-01-29T22:52:42.383Z,28.70
2023-01-29T22:55:11.937Z,29.17
2023-01-29T22:57:41.225Z,29.03
2023-01-29T23:00:12.320Z,28.40
2023-01-29T23:02:40.028Z,29.63
2023-01-29T23:05:08.697Z,30.47
2023-01-29T23:07:36.358Z,28.85
2023-01-29T23:10:04.326Z,29.53
2023-01-29T23:12:32.093Z,28.77
2023-01-29T23:15:01.080Z,27.73
2023-01-29T23:17:28.743Z,30.10
2023-01-29T23:19:56.391Z,27.93
2023-01-29T23:22:24.232Z,27.67
2023-01-29T23:24:52.040Z,27.60
2023-01-29T23:27:18.745Z,26.03
2023-01-29T23:29:48.304Z,26.20
2023-01-29T23:32:19.276Z,27.07
2023-01-29T23:34:47.050Z,28.17
2023-01-29T23:37:14.903Z,27.47
2023-01-29T23:39:42.581Z,26.35
2023-01-29T23:42:10.178Z,26.57
2023-01-29T23:44:37.832Z,25.97
2023-01-29T23:47:05.608Z,25.90
2023-01-29T23:49:34.652Z,23.40
2023-01-29T23:52:02.280Z,23.20
2023-01-29T23:54:30.179Z,22.57
2023-01-29T23:56:57.874Z,21.77
2023-01-29T23:59:28.065Z,22.37
